sensor_id;sensor_type;location;lat;lon;timestamp;pressure;altitude;pressure_sealevel;temperature;humidity
14800;BME280;7491;57.750;11.970;2022-07-24T00:00:43;75268.88;;;-142.11;100.00
14800;BME280;7491;57.750;11.970;2022-07-24T00:03:09;75258.69;;;-142.11;100.00
14800;BME280;7491;57.750;11.970;2022-07-24T00:05:37;75262.75;;;-142.11;100.00
14800;BME280;7491;57.750;11.970;2022-07-24T00:08:04;75270.91;;;-142.11;100.00
14800;BME280;7491;57.750;11.970;2022-07-24T00:10:32;75277.03;;;-142.11;100.00
14800;BME280;7491;57.750;11.970;2022-07-24T00:12:59;75277.03;;;-142.11;100.00
14800;BME280;7491;57.750;11.970;2022-07-24T00:15:25;75279.06;;;-142.11;100.00
14800;BME280;7491;57.750;11.970;2022-07-24T00:17:52;75289.25;;;-142.11;100.00
14800;BME280;7491;57.750;11.970;2022-07-24T00:20:19;75289.25;;;-142.11;100.00
14800;BME280;7491;57.750;11.970;2022-07-24T00:22:48;75285.19;;;-142.11;100.00
14800;BME280;7491;57.750;11.970;2022-07-24T00:25:16;75287.22;;;-142.11;100.00
14800;BME280;7491;57.750;11.970;2022-07-24T00:27:43;75285.19;;;-142.11;100.00
14800;BME280;7491;57.750;11.970;2022-07-24T00:30:12;75270.91;;;-142.11;100.00
14800;BME280;7491;57.750;11.970;2022-07-24T00:32:39;75272.97;;;-142.11;100.00
14800;BME280;7491;57.750;11.970;2022-07-24T00:35:06;75283.16;;;-142.11;100.00
14800;BME280;7491;57.750;11.970;2022-07-24T00:37:33;75291.31;;;-142.11;100.00
14800;BME280;7491;57.750;11.970;2022-07-24T00:40:01;75295.38;;;-142.11;100.00
14800;BME280;7491;57.750;11.970;2022-07-24T00:42:27;75297.41;;;-142.11;100.00
14800;BME280;7491;57.750;11.970;2022-07-24T00:44:54;75301.50;;;-142.11;100.00
14800;BME280;7491;57.750;11.970;2022-07-24T00:47:21;75309.63;;;-142.11;100.00
14800;BME280;7491;57.750;11.970;2022-07-24T00:49:47;75311.69;;;-142.11;100.00
14800;BME280;7491;57.750;11.970;2022-07-24T00:52:14;75313.72;;;-142.11;100.00
14800;BME280;7491;57.750;11.970;2022-07-24T00:54:41;75313.72;;;-142.11;100.00
14800;BME280;7491;57.750;11.970;2022-07-24T00:57:09;75313.72;;;-142.11;100.00
14800;BME280;7491;57.750;11.970;2022-07-24T00:59:35;75307.59;;;-142.11;100.00
14800;BME280;7491;57.750;11.970;2022-07-24T01:02:02;75319.81;;;-142.11;100.00
14800;BME280;7491;57.750;11.970;2022-07-24T01:04:29;75325.94;;;-142.11;100.00
14800;BME280;7491;57.750;11.970;2022-07-24T01:06:55;75319.81;;;-142.11;100.00
14800;BME280;7491;57.750;11.970;2022-07-24T01:09:22;75330.03;;;-142.11;100.00
14800;BME280;7491;57.750;11.970;2022-07-24T01:11:50;75319.81;;;-142.11;100.00
14800;BME280;7491;57.750;11.970;2022-07-24T01:14:19;75325.94;;;-142.11;100.00
14800;BME280;7491;57.750;11.970;2022-07-24T01:16:45;75323.91;;;-142.11;100.00
14800;BME280;7491;57.750;11.970;2022-07-24T01:19:12;75323.91;;;-142.11;100.00
14800;BME280;7491;57.750;11.970;2022-07-24T01:21:44;75332.06;;;-142.11;100.00
14800;BME280;7491;57.750;11.970;2022-07-24T01:24:11;75330.03;;;-142.11;100.00
14800;BME280;7491;57.750;11.970;2022-07-24T01:26:38;75348.38;;;-142.11;100.00
14800;BME280;7491;57.750;11.970;2022-07-24T01:29:05;75336.13;;;-142.11;100.00
14800;BME280;7491;57.750;11.970;2022-07-24T01:31:31;75330.03;;;-142.11;100.00
14800;BME280;7491;57.750;11.970;2022-07-24T01:33:58;75336.13;;;-142.11;100.00
14800;BME280;7491;57.750;11.970;2022-07-24T01:36:25;75340.22;;;-142.11;100.00
14800;BME280;7491;57.750;11.970;2022-07-24T01:38:53;75336.13;;;-142.11;100.00
14800;BME280;7491;57.750;11.970;2022-07-24T01:41:19;75334.09;;;-142.11;100.00
14800;BME280;7491;57.750;11.970;2022-07-24T01:43:46;75336.13;;;-142.11;100.00
14800;BME280;7491;57.750;11.970;2022-07-24T01:46:13;75336.13;;;-142.11;100.00
14800;BME280;7491;57.750;11.970;2022-07-24T01:48:40;75340.22;;;-142.11;100.00
14800;BME280;7491;57.750;11.970;2022-07-24T01:51:07;75338.16;;;-142.11;100.00
14800;BME280;7491;57.750;11.970;2022-07-24T01:53:34;75336.13;;;-142.11;100.00
14800;BME280;7491;57.750;11.970;2022-07-24T01:56:02;75342.25;;;-142.11;100.00
14800;BME280;7491;57.750;11.970;2022-07-24T01:58:29;75336.13;;;-142.11;100.00
14800;BME280;7491;57.750;11.970;2022-07-24T02:00:55;75338.16;;;-142.11;100.00
14800;BME280;7491;57.750;11.970;2022-07-24T02:03:22;75344.28;;;-142.11;100.00
14800;BME280;7491;57.750;11.970;2022-07-24T02:05:48;75338.16;;;-142.11;100.00
14800;BME280;7491;57.750;11.970;2022-07-24T02:08:15;75342.25;;;-142.11;100.00
14800;BME280;7491;57.750;11.970;2022-07-24T02:10:42;75338.16;;;-142.11;100.00
14800;BME280;7491;57.750;11.970;2022-07-24T02:13:10;75338.16;;;-142.11;100.00
14800;BME280;7491;57.750;11.970;2022-07-24T02:15:37;75342.25;;;-142.11;100.00
14800;BME280;7491;57.750;11.970;2022-07-24T02:18:03;75342.25;;;-142.11;100.00
14800;BME280;7491;57.750;11.970;2022-07-24T02:20:30;75340.22;;;-142.11;100.00
14800;BME280;7491;57.750;11.970;2022-07-24T02:22:57;75336.13;;;-142.11;100.00
14800;BME280;7491;57.750;11.970;2022-07-24T02:25:23;75342.25;;;-142.11;100.00
14800;BME280;7491;57.750;11.970;2022-07-24T02:27:50;75348.38;;;-142.11;100.00
14800;BME280;7491;57.750;11.970;2022-07-24T02:30:21;75344.28;;;-142.11;100.00
14800;BME280;7491;57.750;11.970;2022-07-24T02:32:48;75354.47;;;-142.11;100.00
14800;BME280;7491;57.750;11.970;2022-07-24T02:35:14;75350.41;;;-142.11;100.00
14800;BME280;7491;57.750;11.970;2022-07-24T02:37:44;75350.41;;;-142.11;100.00
14800;BME280;7491;57.750;11.970;2022-07-24T02:40:13;75348.38;;;-142.11;100.00
14800;BME280;7491;57.750;11.970;2022-07-24T02:42:40;75356.50;;;-142.11;100.00
14800;BME280;7491;57.750;11.970;2022-07-24T02:45:07;75356.50;;;-142.11;100.00
14800;BME280;7491;57.750;11.970;2022-07-24T02:47:38;75358.56;;;-142.11;100.00
14800;BME280;7491;57.750;11.970;2022-07-24T02:50:11;75366.72;;;-142.11;100.00
14800;BME280;7491;57.750;11.970;2022-07-24T02:52:38;75364.66;;;-142.11;100.00
14800;BME280;7491;57.750;11.970;2022-07-24T02:55:05;75368.75;;;-142.11;100.00
14800;BME280;7491;57.750;11.970;2022-07-24T02:57:32;75372.81;;;-142.11;100.00
14800;BME280;7491;57.750;11.970;2022-07-24T02:59:59;75378.94;;;-142.11;100.00
14800;BME280;7491;57.750;11.970;2022-07-24T03:02:26;75378.94;;;-142.11;100.00
14800;BME280;7491;57.750;11.970;2022-07-24T03:04:54;75372.81;;;-142.11;100.00
14800;BME280;7491;57.750;11.970;2022-07-24T03:07:20;75380.97;;;-142.11;100.00
14800;BME280;7491;57.750;11.970;2022-07-24T03:09:47;75368.75;;;-142.11;100.00
14800;BME280;7491;57.750;11.970;2022-07-24T03:12:14;75366.72;;;-142.11;100.00
14800;BME280;7491;57.750;11.970;2022-07-24T03:14:40;75364.66;;;-142.11;100.00
14800;BME280;7491;57.750;11.970;2022-07-24T03:17:07;75380.97;;;-142.11;100.00
14800;BME280;7491;57.750;11.970;2022-07-24T03:19:34;75378.94;;;-142.11;100.00
14800;BME280;7491;57.750;11.970;2022-07-24T03:22:02;75380.97;;;-142.11;100.00
14800;BME280;7491;57.750;11.970;2022-07-24T03:24:29;75383.00;;;-142.11;100.00
14800;BME280;7491;57.750;11.970;2022-07-24T03:26:55;75391.16;;;-142.11;100.00
14800;BME280;7491;57.750;11.970;2022-07-24T03:29:22;75393.19;;;-142.11;100.00
14800;BME280;7491;57.750;11.970;2022-07-24T03:31:49;75389.13;;;-142.11;100.00
14800;BME280;7491;57.750;11.970;2022-07-24T03:34:15;75399.31;;;-142.11;100.00
14800;BME280;7491;57.750;11.970;2022-07-24T03:36:42;75401.34;;;-142.11;100.00
14800;BME280;7491;57.750;11.970;2022-07-24T03:39:10;75409.50;;;-142.11;100.00
14800;BME280;7491;57.750;11.970;2022-07-24T03:41:37;75403.38;;;-142.11;100.00
14800;BME280;7491;57.750;11.970;2022-07-24T03:44:03;75407.47;;;-142.11;100.00
14800;BME280;7491;57.750;11.970;2022-07-24T03:46:30;75411.53;;;-142.11;100.00
14800;BME280;7491;57.750;11.970;2022-07-24T03:48:57;75401.34;;;-142.11;100.00
14800;BME280;7491;57.750;11.970;2022-07-24T03:51:24;75413.56;;;-142.11;100.00
14800;BME280;7491;57.750;11.970;2022-07-24T03:53:54;75417.66;;;-142.11;100.00
14800;BME280;7491;57.750;11.970;2022-07-24T03:56:22;75419.69;;;-142.11;100.00
14800;BME280;7491;57.750;11.970;2022-07-24T03:58:48;75425.81;;;-142.11;100.00
14800;BME280;7491;57.750;11.970;2022-07-24T04:01:15;75419.69;;;-142.11;100.00
14800;BME280;7491;57.750;11.970;2022-07-24T04:03:42;75413.56;;;-142.11;100.00
14800;BME280;7491;57.750;11.970;2022-07-24T04:06:08;75409.50;;;-142.11;100.00
14800;BME280;7491;57.750;11.970;2022-07-24T04:08:35;75411.53;;;-142.11;100.00
14800;BME280;7491;57.750;11.970;2022-07-24T04:11:02;75407.47;;;-142.11;100.00
14800;BME280;7491;57.750;11.970;2022-07-24T04:13:30;75409.50;;;-142.11;100.00
14800;BME280;7491;57.750;11.970;2022-07-24T04:15:57;75411.53;;;-142.11;100.00
14800;BME280;7491;57.750;11.970;2022-07-24T04:18:24;75411.53;;;-142.11;100.00
14800;BME280;7491;57.750;11.970;2022-07-24T04:20:51;75415.63;;;-142.11;100.00
14800;BME280;7491;57.750;11.970;2022-07-24T04:23:18;75407.47;;;-142.11;100.00
14800;BME280;7491;57.750;11.970;2022-07-24T04:25:45;75407.47;;;-142.11;100.00
14800;BME280;7491;57.750;11.970;2022-07-24T04:28:12;75413.56;;;-142.11;100.00
14800;BME280;7491;57.750;11.970;2022-07-24T04:30:40;75425.81;;;-142.11;100.00
14800;BME280;7491;57.750;11.970;2022-07-24T04:33:07;75423.78;;;-142.11;100.00
14800;BME280;7491;57.750;11.970;2022-07-24T04:35:33;75423.78;;;-142.11;100.00
14800;BME280;7491;57.750;11.970;2022-07-24T04:38:00;75427.84;;;-142.11;100.00
14800;BME280;7491;57.750;11.970;2022-07-24T04:40:27;75421.72;;;-142.11;100.00
14800;BME280;7491;57.750;11.970;2022-07-24T04:42:54;75421.72;;;-142.11;100.00
14800;BME280;7491;57.750;11.970;2022-07-24T04:45:21;75421.72;;;-142.11;100.00
14800;BME280;7491;57.750;11.970;2022-07-24T04:47:49;75427.84;;;-142.11;100.00
14800;BME280;7491;57.750;11.970;2022-07-24T04:50:15;75421.72;;;-142.11;100.00
14800;BME280;7491;57.750;11.970;2022-07-24T04:52:42;75425.81;;;-142.11;100.00
14800;BME280;7491;57.750;11.970;2022-07-24T04:55:10;75427.84;;;-142.11;100.00
14800;BME280;7491;57.750;11.970;2022-07-24T04:57:38;75431.91;;;-142.11;100.00
14800;BME280;7491;57.750;11.970;2022-07-24T05:00:09;75423.78;;;-142.11;100.00
14800;BME280;7491;57.750;11.970;2022-07-24T05:02:36;75431.91;;;-142.11;100.00
14800;BME280;7491;57.750;11.970;2022-07-24T05:05:06;75433.97;;;-142.11;100.00
14800;BME280;7491;57.750;11.970;2022-07-24T05:07:33;75425.81;;;-142.11;100.00
14800;BME280;7491;57.750;11.970;2022-07-24T05:10:00;75415.63;;;-142.11;100.00
14800;BME280;7491;57.750;11.970;2022-07-24T05:12:27;75417.66;;;-142.11;100.00
14800;BME280;7491;57.750;11.970;2022-07-24T05:14:54;75417.66;;;-142.11;100.00
14800;BME280;7491;57.750;11.970;2022-07-24T05:17:20;75413.56;;;-142.11;100.00
14800;BME280;7491;57.750;11.970;2022-07-24T05:19:47;75421.72;;;-142.11;100.00
14800;BME280;7491;57.750;11.970;2022-07-24T05:22:15;75411.53;;;-142.11;100.00
14800;BME280;7491;57.750;11.970;2022-07-24T05:24:43;75407.47;;;-142.11;100.00
14800;BME280;7491;57.750;11.970;2022-07-24T05:27:09;75399.31;;;-142.11;100.00
14800;BME280;7491;57.750;11.970;2022-07-24T05:29:36;75397.28;;;-142.11;100.00
14800;BME280;7491;57.750;11.970;2022-07-24T05:32:03;75397.28;;;-142.11;100.00
14800;BME280;7491;57.750;11.970;2022-07-24T05:34:30;75399.31;;;-142.11;100.00
14800;BME280;7491;57.750;11.970;2022-07-24T05:36:57;75391.16;;;-142.11;100.00
14800;BME280;7491;57.750;11.970;2022-07-24T05:39:25;75380.97;;;-142.11;100.00
14800;BME280;7491;57.750;11.970;2022-07-24T05:41:51;75393.19;;;-142.11;100.00
14800;BME280;7491;57.750;11.970;2022-07-24T05:44:18;75395.25;;;-142.11;100.00
14800;BME280;7491;57.750;11.970;2022-07-24T05:46:45;75393.19;;;-142.11;100.00
14800;BME280;7491;57.750;11.970;2022-07-24T05:49:11;75391.16;;;-142.11;100.00
14800;BME280;7491;57.750;11.970;2022-07-24T05:51:38;75378.94;;;-142.11;100.00
14800;BME280;7491;57.750;11.970;2022-07-24T05:54:05;75368.75;;;-142.11;100.00
14800;BME280;7491;57.750;11.970;2022-07-24T05:56:33;75366.72;;;-142.11;100.00
14800;BME280;7491;57.750;11.970;2022-07-24T05:58:59;75344.28;;;-142.11;100.00
14800;BME280;7491;57.750;11.970;2022-07-24T06:01:26;75323.91;;;-142.11;100.00
14800;BME280;7491;57.750;11.970;2022-07-24T06:03:53;75303.53;;;-142.11;100.00
14800;BME280;7491;57.750;11.970;2022-07-24T06:06:19;75289.25;;;-142.11;100.00
14800;BME280;7491;57.750;11.970;2022-07-24T06:08:46;75291.31;;;-142.11;100.00
14800;BME280;7491;57.750;11.970;2022-07-24T06:11:12;75277.03;;;-142.11;100.00
14800;BME280;7491;57.750;11.970;2022-07-24T06:13:40;75264.81;;;-142.11;100.00
14800;BME280;7491;57.750;11.970;2022-07-24T06:16:07;75252.56;;;-142.11;100.00
14800;BME280;7491;57.750;11.970;2022-07-24T06:18:34;75246.47;;;-142.11;100.00
14800;BME280;7491;57.750;11.970;2022-07-24T06:21:00;75248.50;;;-142.11;100.00
14800;BME280;7491;57.750;11.970;2022-07-24T06:23:27;75254.63;;;-142.11;100.00
14800;BME280;7491;57.750;11.970;2022-07-24T06:25:54;75248.50;;;-142.11;100.00
14800;BME280;7491;57.750;11.970;2022-07-24T06:28:20;75222.00;;;-142.11;100.00
14800;BME280;7491;57.750;11.970;2022-07-24T06:30:48;75195.50;;;-142.11;100.00
14800;BME280;7491;57.750;11.970;2022-07-24T06:33:15;75183.28;;;-142.11;100.00
14800;BME280;7491;57.750;11.970;2022-07-24T06:35:41;75175.13;;;-142.11;100.00
14800;BME280;7491;57.750;11.970;2022-07-24T06:38:08;75162.91;;;-142.11;100.00
14800;BME280;7491;57.750;11.970;2022-07-24T06:40:36;75177.16;;;-142.11;100.00
14800;BME280;7491;57.750;11.970;2022-07-24T06:43:03;75154.75;;;-142.11;100.00
14800;BME280;7491;57.750;11.970;2022-07-24T06:45:30;75140.50;;;-142.11;100.00
14800;BME280;7491;57.750;11.970;2022-07-24T06:47:59;75140.50;;;-142.11;100.00
14800;BME280;7491;57.750;11.970;2022-07-24T06:50:25;75130.31;;;-142.11;100.00
14800;BME280;7491;57.750;11.970;2022-07-24T06:52:52;75138.44;;;-142.11;100.00
14800;BME280;7491;57.750;11.970;2022-07-24T06:55:19;75132.34;;;-142.11;100.00
14800;BME280;7491;57.750;11.970;2022-07-24T06:57:46;75111.97;;;-142.11;100.00
14800;BME280;7491;57.750;11.970;2022-07-24T07:00:13;75109.94;;;-142.11;100.00
14800;BME280;7491;57.750;11.970;2022-07-24T07:02:40;75075.28;;;-142.11;100.00
14800;BME280;7491;57.750;11.970;2022-07-24T07:05:08;75044.72;;;-142.11;100.00
14800;BME280;7491;57.750;11.970;2022-07-24T07:07:36;75046.75;;;-142.11;100.00
14800;BME280;7491;57.750;11.970;2022-07-24T07:10:03;75056.94;;;-142.11;100.00
14800;BME280;7491;57.750;11.970;2022-07-24T07:12:30;75075.28;;;-142.11;100.00
14800;BME280;7491;57.750;11.970;2022-07-24T07:14:57;75087.50;;;-142.11;100.00
14800;BME280;7491;57.750;11.970;2022-07-24T07:17:24;75087.50;;;-142.11;100.00
14800;BME280;7491;57.750;11.970;2022-07-24T07:19:51;75091.59;;;-142.11;100.00
14800;BME280;7491;57.750;11.970;2022-07-24T07:22:19;75107.88;;;-142.11;100.00
14800;BME280;7491;57.750;11.970;2022-07-24T07:24:46;75077.31;;;-142.11;100.00
14800;BME280;7491;57.750;11.970;2022-07-24T07:27:13;75071.19;;;-142.11;100.00
14800;BME280;7491;57.750;11.970;2022-07-24T07:29:39;75073.25;;;-142.11;100.00
14800;BME280;7491;57.750;11.970;2022-07-24T07:32:06;75071.19;;;-142.11;100.00
14800;BME280;7491;57.750;11.970;2022-07-24T07:34:33;75046.75;;;-142.11;100.00
14800;BME280;7491;57.750;11.970;2022-07-24T07:36:59;74993.75;;;-142.11;100.00
14800;BME280;7491;57.750;11.970;2022-07-24T07:39:27;74971.34;;;-142.11;100.00
14800;BME280;7491;57.750;11.970;2022-07-24T07:41:54;74965.25;;;-142.11;100.00
14800;BME280;7491;57.750;11.970;2022-07-24T07:44:20;74961.16;;;-142.11;100.00
14800;BME280;7491;57.750;11.970;2022-07-24T07:46:47;74981.53;;;-142.11;100.00
14800;BME280;7491;57.750;11.970;2022-07-24T07:49:14;74953.00;;;-142.11;100.00
14800;BME280;7491;57.750;11.970;2022-07-24T07:51:40;74936.72;;;-142.11;100.00
14800;BME280;7491;57.750;11.970;2022-07-24T07:54:07;74934.66;;;-142.11;100.00
14800;BME280;7491;57.750;11.970;2022-07-24T07:56:35;74918.38;;;-142.11;100.00
14800;BME280;7491;57.750;11.970;2022-07-24T07:59:02;74914.28;;;-142.11;100.00
14800;BME280;7491;57.750;11.970;2022-07-24T08:01:29;74936.72;;;-142.11;100.00
14800;BME280;7491;57.750;11.970;2022-07-24T08:03:55;74891.88;;;-142.11;100.00
14800;BME280;7491;57.750;11.970;2022-07-24T08:06:22;74904.09;;;-142.11;100.00
14800;BME280;7491;57.750;11.970;2022-07-24T08:08:48;74910.22;;;-142.11;100.00
14800;BME280;7491;57.750;11.970;2022-07-24T08:11:15;74902.06;;;-142.11;100.00
14800;BME280;7491;57.750;11.970;2022-07-24T08:13:43;74936.72;;;-142.11;100.00
14800;BME280;7491;57.750;11.970;2022-07-24T08:16:10;74940.78;;;-142.11;100.00
14800;BME280;7491;57.750;11.970;2022-07-24T08:18:36;74934.66;;;-142.11;100.00
14800;BME280;7491;57.750;11.970;2022-07-24T08:21:03;74914.28;;;-142.11;100.00
14800;BME280;7491;57.750;11.970;2022-07-24T08:23:30;74895.94;;;-142.11;100.00
14800;BME280;7491;57.750;11.970;2022-07-24T08:25:56;74871.50;;;-142.11;100.00
14800;BME280;7491;57.750;11.970;2022-07-24T08:28:23;74855.19;;;-142.11;100.00
14800;BME280;7491;57.750;11.970;2022-07-24T08:30:51;74847.03;;;-142.11;100.00
14800;BME280;7491;57.750;11.970;2022-07-24T08:33:18;74869.47;;;-142.11;100.00
14800;BME280;7491;57.750;11.970;2022-07-24T08:35:45;74865.38;;;-142.11;100.00
14800;BME280;7491;57.750;11.970;2022-07-24T08:38:11;74859.28;;;-142.11;100.00
14800;BME280;7491;57.750;11.970;2022-07-24T08:40:39;74906.13;;;-142.11;100.00
14800;BME280;7491;57.750;11.970;2022-07-24T08:43:07;74912.25;;;-142.11;100.00
14800;BME280;7491;57.750;11.970;2022-07-24T08:45:35;74904.09;;;-142.11;100.00
14800;BME280;7491;57.750;11.970;2022-07-24T08:48:05;74898.00;;;-142.11;100.00
14800;BME280;7491;57.750;11.970;2022-07-24T08:50:34;74881.69;;;-142.11;100.00
14800;BME280;7491;57.750;11.970;2022-07-24T08:53:02;74863.34;;;-142.11;100.00
14800;BME280;7491;57.750;11.970;2022-07-24T08:55:29;74842.97;;;-142.11;100.00
14800;BME280;7491;57.750;11.970;2022-07-24T08:57:56;74806.28;;;-142.11;100.00
14800;BME280;7491;57.750;11.970;2022-07-24T09:00:24;74865.38;;;-142.11;100.00
14800;BME280;7491;57.750;11.970;2022-07-24T09:02:50;74895.94;;;-142.11;100.00
14800;BME280;7491;57.750;11.970;2022-07-24T09:05:19;74940.78;;;-142.11;100.00
14800;BME280;7491;57.750;11.970;2022-07-24T09:07:46;74924.47;;;-142.11;100.00
14800;BME280;7491;57.750;11.970;2022-07-24T09:10:15;74900.03;;;-142.11;100.00
14800;BME280;7491;57.750;11.970;2022-07-24T09:12:44;74916.31;;;-142.11;100.00
14800;BME280;7491;57.750;11.970;2022-07-24T09:15:13;74910.22;;;-142.11;100.00
14800;BME280;7491;57.750;11.970;2022-07-24T09:17:50;74906.13;;;-142.11;100.00
14800;BME280;7491;57.750;11.970;2022-07-24T09:20:19;74895.94;;;-142.11;100.00
14800;BME280;7491;57.750;11.970;2022-07-24T09:22:46;74906.13;;;-142.11;100.00
14800;BME280;7491;57.750;11.970;2022-07-24T09:25:15;74908.19;;;-142.11;100.00
14800;BME280;7491;57.750;11.970;2022-07-24T09:27:49;74902.06;;;-142.11;100.00
14800;BME280;7491;57.750;11.970;2022-07-24T09:30:28;74891.88;;;-142.11;100.00
14800;BME280;7491;57.750;11.970;2022-07-24T09:32:58;74887.81;;;-142.11;100.00
14800;BME280;7491;57.750;11.970;2022-07-24T09:35:35;74900.03;;;-142.11;100.00
14800;BME280;7491;57.750;11.970;2022-07-24T09:38:05;74898.00;;;-142.11;100.00
14800;BME280;7491;57.750;11.970;2022-07-24T09:40:33;74885.75;;;-142.11;100.00
14800;BME280;7491;57.750;11.970;2022-07-24T09:43:13;74904.09;;;-142.11;100.00
14800;BME280;7491;57.750;11.970;2022-07-24T09:45:57;74893.91;;;-142.11;100.00
14800;BME280;7491;57.750;11.970;2022-07-24T09:48:26;74920.41;;;-142.11;100.00
14800;BME280;7491;57.750;11.970;2022-07-24T09:50:56;74885.75;;;-142.11;100.00
14800;BME280;7491;57.750;11.970;2022-07-24T09:53:25;74863.34;;;-142.11;100.00
14800;BME280;7491;57.750;11.970;2022-07-24T09:55:57;74861.31;;;-142.11;100.00
14800;BME280;7491;57.750;11.970;2022-07-24T09:58:24;74834.81;;;-142.11;100.00
14800;BME280;7491;57.750;11.970;2022-07-24T10:00:54;74842.97;;;-142.11;100.00
14800;BME280;7491;57.750;11.970;2022-07-24T10:03:24;74842.97;;;-142.11;100.00
14800;BME280;7491;57.750;11.970;2022-07-24T10:05:55;74822.59;;;-142.11;100.00
14800;BME280;7491;57.750;11.970;2022-07-24T10:08:23;74832.78;;;-142.11;100.00
14800;BME280;7491;57.750;11.970;2022-07-24T10:10:50;74826.66;;;-142.11;100.00
14800;BME280;7491;57.750;11.970;2022-07-24T10:13:17;74830.75;;;-142.11;100.00
14800;BME280;7491;57.750;11.970;2022-07-24T10:15:51;74828.72;;;-142.11;100.00
14800;BME280;7491;57.750;11.970;2022-07-24T10:18:19;74826.66;;;-142.11;100.00
14800;BME280;7491;57.750;11.970;2022-07-24T10:20:56;74818.53;;;-142.11;100.00
14800;BME280;7491;57.750;11.970;2022-07-24T10:23:37;74798.16;;;-142.11;100.00
14800;BME280;7491;57.750;11.970;2022-07-24T10:26:14;74781.84;;;-142.11;100.00
14800;BME280;7491;57.750;11.970;2022-07-24T10:28:43;74787.94;;;-142.11;100.00
14800;BME280;7491;57.750;11.970;2022-07-24T10:31:12;74826.66;;;-142.11;100.00
14800;BME280;7491;57.750;11.970;2022-07-24T10:33:40;74820.56;;;-142.11;100.00
14800;BME280;7491;57.750;11.970;2022-07-24T10:36:20;74810.38;;;-142.11;100.00
14800;BME280;7491;57.750;11.970;2022-07-24T10:38:55;74800.19;;;-142.11;100.00
14800;BME280;7491;57.750;11.970;2022-07-24T10:41:24;74800.19;;;-142.11;100.00
14800;BME280;7491;57.750;11.970;2022-07-24T10:44:16;74773.69;;;-142.11;100.00
14800;BME280;7491;57.750;11.970;2022-07-24T10:47:06;74771.66;;;-142.11;100.00
14800;BME280;7491;57.750;11.970;2022-07-24T10:49:43;74771.66;;;-142.11;100.00
14800;BME280;7491;57.750;11.970;2022-07-24T10:52:22;74763.50;;;-142.11;100.00
14800;BME280;7491;57.750;11.970;2022-07-24T10:55:18;74781.84;;;-142.11;100.00
14800;BME280;7491;57.750;11.970;2022-07-24T10:57:46;74792.03;;;-142.11;100.00
14800;BME280;7491;57.750;11.970;2022-07-24T11:00:21;74802.22;;;-142.11;100.00
14800;BME280;7491;57.750;11.970;2022-07-24T11:02:55;74775.72;;;-142.11;100.00
14800;BME280;7491;57.750;11.970;2022-07-24T11:05:23;74763.50;;;-142.11;100.00
14800;BME280;7491;57.750;11.970;2022-07-24T11:08:19;74732.94;;;-142.11;100.00
14800;BME280;7491;57.750;11.970;2022-07-24T11:10:58;74737.00;;;-142.11;100.00
14800;BME280;7491;57.750;11.970;2022-07-24T11:13:49;74745.16;;;-142.11;100.00
14800;BME280;7491;57.750;11.970;2022-07-24T11:16:27;74726.81;;;-142.11;100.00
14800;BME280;7491;57.750;11.970;2022-07-24T11:19:27;74706.44;;;-142.11;100.00
14800;BME280;7491;57.750;11.970;2022-07-24T11:22:10;74706.44;;;-142.11;100.00
14800;BME280;7491;57.750;11.970;2022-07-24T11:25:07;74694.22;;;-142.11;100.00
14800;BME280;7491;57.750;11.970;2022-07-24T11:27:54;74682.00;;;-142.11;100.00
14800;BME280;7491;57.750;11.970;2022-07-24T11:30:23;74712.56;;;-142.11;100.00
14800;BME280;7491;57.750;11.970;2022-07-24T11:32:50;74706.44;;;-142.11;100.00
14800;BME280;7491;57.750;11.970;2022-07-24T11:35:26;74690.16;;;-142.11;100.00
14800;BME280;7491;57.750;11.970;2022-07-24T11:37:53;74690.16;;;-142.11;100.00
14800;BME280;7491;57.750;11.970;2022-07-24T11:40:21;74677.91;;;-142.11;100.00
14800;BME280;7491;57.750;11.970;2022-07-24T11:42:54;74669.78;;;-142.11;100.00
14800;BME280;7491;57.750;11.970;2022-07-24T11:45:21;74659.59;;;-142.11;100.00
14800;BME280;7491;57.750;11.970;2022-07-24T11:47:48;74677.91;;;-142.11;100.00
14800;BME280;7491;57.750;11.970;2022-07-24T11:50:14;74655.50;;;-142.11;100.00
14800;BME280;7491;57.750;11.970;2022-07-24T11:52:41;74635.13;;;-142.11;100.00
14800;BME280;7491;57.750;11.970;2022-07-24T11:55:10;74635.13;;;-142.11;100.00
14800;BME280;7491;57.750;11.970;2022-07-24T11:57:40;74626.97;;;-142.11;100.00
14800;BME280;7491;57.750;11.970;2022-07-24T12:00:10;74631.06;;;-142.11;100.00
14800;BME280;7491;57.750;11.970;2022-07-24T12:02:42;74645.31;;;-142.11;100.00
14800;BME280;7491;57.750;11.970;2022-07-24T12:05:09;74663.66;;;-142.11;100.00
14800;BME280;7491;57.750;11.970;2022-07-24T12:07:36;74684.03;;;-142.11;100.00
14800;BME280;7491;57.750;11.970;2022-07-24T12:10:04;74694.22;;;-142.11;100.00
14800;BME280;7491;57.750;11.970;2022-07-24T12:12:32;74682.00;;;-142.11;100.00
14800;BME280;7491;57.750;11.970;2022-07-24T12:15:04;74684.03;;;-142.11;100.00
14800;BME280;7491;57.750;11.970;2022-07-24T12:17:33;74712.56;;;-142.11;100.00
14800;BME280;7491;57.750;11.970;2022-07-24T12:20:01;74722.75;;;-142.11;100.00
14800;BME280;7491;57.750;11.970;2022-07-24T12:22:31;74743.13;;;-142.11;100.00
14800;BME280;7491;57.750;11.970;2022-07-24T12:24:58;74732.94;;;-142.11;100.00
14800;BME280;7491;57.750;11.970;2022-07-24T12:27:35;74745.16;;;-142.11;100.00
14800;BME280;7491;57.750;11.970;2022-07-24T12:30:26;74741.09;;;-142.11;100.00
14800;BME280;7491;57.750;11.970;2022-07-24T12:32:58;74749.25;;;-142.11;100.00
14800;BME280;7491;57.750;11.970;2022-07-24T12:35:26;74769.63;;;-142.11;100.00
14800;BME280;7491;57.750;11.970;2022-07-24T12:37:53;74759.44;;;-142.11;100.00